Time;durP1;ratioP1;P1;durP2;ratioP2;P2;SDS_P1;SDS_P2;PMS_P1;PMS_P2;Temp;Humidity;BMP_temperature;BMP_pressure;BME280_temperature;BME280_humidity;BME280_pressure;Samples;Min_cycle;Max_cycle;Signal;HPM_P1;HPM_P2
2022/02/28 00:00:06;;;;;;;;;;;4.80;99.90;220.40;238766.00;;;;352094;28;4745;-85
2022/02/28 00:00:19;;;;;;;;;;;4.80;99.90;220.40;238766.00;;;;348592;28;4703;-86
2022/02/28 00:00:31;;;;;;;;;;;4.70;99.90;220.40;238766.00;;;;350104;28;4746;-86
2022/02/28 00:00:49;;;;;;;;;;;4.80;99.90;220.40;238766.00;;;;350003;28;5419;-86
2022/02/28 00:01:10;;;;;;;;;;;4.80;99.90;220.40;238766.00;;;;350659;28;4941;-86
2022/02/28 00:01:23;;;;;;;;;;;4.80;99.90;220.40;238766.00;;;;348657;28;7955;-86
2022/02/28 00:01:35;;;;;;;;;;;4.70;99.90;220.40;238766.00;;;;350130;28;4763;-87
2022/02/28 00:01:47;;;;;;;;;;;4.80;99.90;220.40;238766.00;;;;350167;28;4734;-86
2022/02/28 00:01:59;;;;;;;;;;;4.80;99.90;220.40;238766.00;;;;350073;28;4828;-86
2022/02/28 00:02:11;;;;;;;;;;;4.80;99.70;220.40;238766.00;;;;350215;28;5612;-86
2022/02/28 00:02:23;;;;;;;;;;;4.80;99.60;220.40;238766.00;;;;345750;28;4711;-86
2022/02/28 00:02:35;;;;;;;;;;;4.80;99.50;220.40;238766.00;;;;343178;28;5288;-86
2022/02/28 00:02:47;;;;;;;;;;;4.80;99.40;220.40;238766.00;;;;341482;28;7257;-86
2022/02/28 00:03:00;;;;;;;;;;;4.80;99.30;220.40;238766.00;;;;345508;28;7053;-86
2022/02/28 00:03:11;;;;;;;;;;;4.80;99.30;220.40;238766.00;;;;342921;28;6198;-86
2022/02/28 00:03:23;;;;;;;;;;;4.80;99.20;220.40;238766.00;;;;342958;28;5288;-86
2022/02/28 00:03:35;;;;;;;;;;;4.80;99.20;220.40;238766.00;;;;344304;28;6231;-86
2022/02/28 00:03:48;;;;;;;;;;;4.80;99.10;220.40;238766.00;;;;346113;28;7581;-86
2022/02/28 00:04:00;;;;;;;;;;;4.80;99.10;220.40;238766.00;;;;345242;28;4837;-86
2022/02/28 00:04:12;;;;;;;;;;;4.80;99.10;220.40;238766.00;;;;348479;28;5213;-86
2022/02/28 00:04:25;;;;;;;;;;;4.80;99.10;220.40;238766.00;;;;352428;28;4688;-86
2022/02/28 00:04:37;;;;;;;;;;;4.80;99.00;220.40;238766.00;;;;344507;28;5002;-86
2022/02/28 00:04:48;;;;;;;;;;;4.80;98.90;220.40;238766.00;;;;342935;28;4804;-86
2022/02/28 00:05:00;;;;;;;;;;;4.80;98.80;220.40;238766.00;;;;343538;28;7685;-86
2022/02/28 00:05:12;;;;;;;;;;;4.80;98.80;220.40;238766.00;;;;343109;28;4665;-86
2022/02/28 00:05:24;;;;;;;;;;;4.70;98.70;220.40;238766.00;;;;341603;28;6331;-86
2022/02/28 00:05:36;;;;;;;;;;;4.80;98.80;220.40;238766.00;;;;343068;28;4744;-86
2022/02/28 00:05:47;;;;;;;;;;;4.80;98.70;220.40;238766.00;;;;344260;28;7626;-86
2022/02/28 00:05:59;;;;;;;;;;;4.80;98.60;220.40;238766.00;;;;345482;28;4771;-86
2022/02/28 00:06:11;;;;;;;;;;;4.80;98.40;220.40;238766.00;;;;345856;28;4741;-86
2022/02/28 00:06:24;;;;;;;;;;;4.80;98.40;220.40;238766.00;;;;344380;28;5730;-86
2022/02/28 00:06:36;;;;;;;;;;;4.80;98.40;220.40;238766.00;;;;341743;28;5039;-86
2022/02/28 00:06:48;;;;;;;;;;;4.80;98.40;220.40;238766.00;;;;342936;28;4729;-86
2022/02/28 00:07:00;;;;;;;;;;;4.80;98.40;220.40;238766.00;;;;345212;28;4995;-86
2022/02/28 00:07:11;;;;;;;;;;;4.80;98.40;220.40;238766.00;;;;347641;28;4714;-86
2022/02/28 00:07:23;;;;;;;;;;;4.80;98.40;220.40;238766.00;;;;349689;28;5018;-86
2022/02/28 00:07:35;;;;;;;;;;;4.80;98.40;220.40;238766.00;;;;344363;28;4769;-87
2022/02/28 00:07:49;;;;;;;;;;;4.80;98.40;220.40;238766.00;;;;344342;28;7921;-86
2022/02/28 00:08:00;;;;;;;;;;;4.70;98.40;220.40;238766.00;;;;345692;28;4741;-86
2022/02/28 00:08:12;;;;;;;;;;;4.70;98.40;220.40;238766.00;;;;344362;28;7886;-86
2022/02/28 00:08:24;;;;;;;;;;;4.70;98.30;220.40;238766.00;;;;345783;28;4661;-86
2022/02/28 00:08:36;;;;;;;;;;;4.70;98.00;220.40;238766.00;;;;345753;28;7917;-86
2022/02/28 00:08:48;;;;;;;;;;;4.70;98.30;220.40;238766.00;;;;344224;28;6193;-86
2022/02/28 00:08:59;;;;;;;;;;;4.70;97.90;220.40;238766.00;;;;345847;28;4940;-86
2022/02/28 00:09:12;;;;;;;;;;;4.70;97.80;220.40;238766.00;;;;343117;28;4756;-86
2022/02/28 00:09:24;;;;;;;;;;;4.70;97.80;220.40;238766.00;;;;343024;28;6565;-86
2022/02/28 00:09:35;;;;;;;;;;;4.70;97.90;220.40;238766.00;;;;345673;28;4867;-86
2022/02/28 00:09:47;;;;;;;;;;;4.70;97.90;220.40;238766.00;;;;344253;28;4734;-87
2022/02/28 00:09:59;;;;;;;;;;;4.70;97.90;220.40;238766.00;;;;345158;28;4840;-86
2022/02/28 00:10:12;;;;;;;;;;;4.70;97.90;220.40;238766.00;;;;347494;28;4792;-85
2022/02/28 00:10:24;;;;;;;;;;;4.70;97.90;220.40;238766.00;;;;344246;28;4884;-86
2022/02/28 00:10:36;;;;;;;;;;;4.70;98.00;220.40;238766.00;;;;343118;28;5112;-87
2022/02/28 00:10:48;;;;;;;;;;;4.70;98.00;220.40;238766.00;;;;344414;28;4801;-86
2022/02/28 00:10:59;;;;;;;;;;;4.70;97.90;220.40;238766.00;;;;343027;28;5304;-86
2022/02/28 00:11:13;;;;;;;;;;;4.70;97.90;220.40;238766.00;;;;342866;28;8697;-86
2022/02/28 00:11:25;;;;;;;;;;;4.70;97.90;220.40;238766.00;;;;344386;28;4953;-86
2022/02/28 00:11:36;;;;;;;;;;;4.70;98.00;220.40;238766.00;;;;343059;28;5574;-86
2022/02/28 00:11:48;;;;;;;;;;;4.70;98.00;220.40;238766.00;;;;344460;28;5061;-86
2022/02/28 00:12:05;;;;;;;;;;;4.70;98.00;220.40;238766.00;;;;344388;28;4843;-86
2022/02/28 00:12:17;;;;;;;;;;;4.70;98.00;220.40;238766.00;;;;344379;28;5171;-86
2022/02/28 00:12:29;;;;;;;;;;;4.70;98.00;220.40;238766.00;;;;345734;28;5438;-86
2022/02/28 00:12:42;;;;;;;;;;;4.70;98.10;220.40;238766.00;;;;345786;28;4736;-86
2022/02/28 00:12:54;;;;;;;;;;;4.70;98.00;220.40;238766.00;;;;343105;28;4835;-86
2022/02/28 00:13:06;;;;;;;;;;;4.70;98.00;220.40;238766.00;;;;350160;28;5207;-86
2022/02/28 00:13:17;;;;;;;;;;;4.70;98.00;220.40;238766.00;;;;344396;28;4804;-86
2022/02/28 00:13:29;;;;;;;;;;;4.70;98.00;220.40;238766.00;;;;345108;28;4947;-86
2022/02/28 00:13:41;;;;;;;;;;;4.70;98.10;220.40;238766.00;;;;344363;28;4718;-86
2022/02/28 00:13:53;;;;;;;;;;;4.70;98.10;220.40;238766.00;;;;346458;28;5012;-86
2022/02/28 00:14:05;;;;;;;;;;;4.70;98.10;220.40;238766.00;;;;342945;28;4730;-86
2022/02/28 00:14:16;;;;;;;;;;;4.70;98.10;220.40;238766.00;;;;344381;28;7218;-86
2022/02/28 00:14:28;;;;;;;;;;;4.70;98.10;220.40;238766.00;;;;344427;28;5670;-86
2022/02/28 00:14:40;;;;;;;;;;;4.70;98.00;220.40;238766.00;;;;344346;28;7711;-86
2022/02/28 00:14:52;;;;;;;;;;;4.70;98.00;220.40;238766.00;;;;343071;28;4779;-86
2022/02/28 00:15:04;;;;;;;;;;;4.70;98.00;220.40;238766.00;;;;343070;28;4798;-86
2022/02/28 00:15:17;;;;;;;;;;;4.70;97.90;220.40;238766.00;;;;342963;28;6190;-86
2022/02/28 00:15:29;;;;;;;;;;;4.70;97.90;220.40;238766.00;;;;344339;28;6882;-86
2022/02/28 00:15:41;;;;;;;;;;;4.70;97.90;220.40;238766.00;;;;342992;28;6195;-86
2022/02/28 00:15:53;;;;;;;;;;;4.70;97.90;220.40;238766.00;;;;345412;28;7476;-86
2022/02/28 00:16:05;;;;;;;;;;;4.70;97.90;220.40;238766.00;;;;352333;28;4791;-86
2022/02/28 00:16:17;;;;;;;;;;;4.70;97.90;220.40;238766.00;;;;351499;28;4730;-86
2022/02/28 00:16:29;;;;;;;;;;;4.70;97.90;220.40;238766.00;;;;352347;28;4719;-86
2022/02/28 00:16:41;;;;;;;;;;;4.70;97.90;220.40;238766.00;;;;344328;28;5429;-86
2022/02/28 00:16:53;;;;;;;;;;;4.70;97.90;220.40;238766.00;;;;347142;28;4698;-86
2022/02/28 00:17:05;;;;;;;;;;;4.70;97.90;220.40;238766.00;;;;346972;28;5418;-86
2022/02/28 00:17:17;;;;;;;;;;;4.70;97.80;220.40;238766.00;;;;347096;28;4889;-86
2022/02/28 00:17:28;;;;;;;;;;;4.70;97.80;220.40;238766.00;;;;347101;28;4921;-86
2022/02/28 00:17:40;;;;;;;;;;;4.70;97.80;220.40;238766.00;;;;343087;28;4680;-86
2022/02/28 00:17:52;;;;;;;;;;;4.70;97.80;220.40;238766.00;;;;343052;28;7776;-86
2022/02/28 00:18:04;;;;;;;;;;;4.70;97.90;220.40;238766.00;;;;342875;28;4684;-86
2022/02/28 00:18:15;;;;;;;;;;;4.70;97.90;220.40;238766.00;;;;342977;28;6809;-86
2022/02/28 00:18:27;;;;;;;;;;;4.70;97.80;220.40;238766.00;;;;344389;28;4750;-86
2022/02/28 00:18:39;;;;;;;;;;;4.70;97.80;220.40;238766.00;;;;345703;28;7972;-86
2022/02/28 00:18:51;;;;;;;;;;;4.70;97.80;220.40;238766.00;;;;345763;28;4691;-86
2022/02/28 00:19:02;;;;;;;;;;;4.70;97.80;220.40;238766.00;;;;348518;27;4914;-86
2022/02/28 00:19:14;;;;;;;;;;;4.70;97.80;220.40;238766.00;;;;347494;28;4719;-86
2022/02/28 00:19:26;;;;;;;;;;;4.70;97.80;220.40;238766.00;;;;346014;28;6241;-86
2022/02/28 00:19:38;;;;;;;;;;;4.70;97.90;220.40;238766.00;;;;342932;28;6008;-86
2022/02/28 00:19:49;;;;;;;;;;;4.70;97.90;220.40;238766.00;;;;344468;28;4690;-86
2022/02/28 00:20:06;;;;;;;;;;;4.70;97.90;220.40;238766.00;;;;347006;28;4735;-86
2022/02/28 00:20:18;;;;;;;;;;;4.70;97.90;220.40;238766.00;;;;350101;28;4713;-86
2022/02/28 00:20:29;;;;;;;;;;;4.70;98.00;220.40;238766.00;;;;350147;28;4704;-86
2022/02/28 00:20:41;;;;;;;;;;;4.70;98.00;220.40;238766.00;;;;350008;28;4876;-86
2022/02/28 00:20:53;;;;;;;;;;;4.70;97.90;220.40;238766.00;;;;344329;28;6171;-86
2022/02/28 00:21:05;;;;;;;;;;;4.70;97.90;220.40;238766.00;;;;345765;28;5301;-86
2022/02/28 00:21:16;;;;;;;;;;;4.70;97.80;220.40;238766.00;;;;347078;28;4690;-86
2022/02/28 00:21:28;;;;;;;;;;;4.80;97.90;220.40;238766.00;;;;345699;28;5290;-86
2022/02/28 00:21:40;;;;;;;;;;;4.80;97.80;220.40;238766.00;;;;345740;28;4772;-86
2022/02/28 00:21:52;;;;;;;;;;;4.70;97.80;220.40;238766.00;;;;344307;28;5210;-86
2022/02/28 00:22:04;;;;;;;;;;;4.80;97.70;220.40;238766.00;;;;344052;28;7334;-86
2022/02/28 00:22:16;;;;;;;;;;;4.70;97.70;220.40;238766.00;;;;345620;28;4741;-86
2022/02/28 00:22:27;;;;;;;;;;;4.80;97.70;220.40;238766.00;;;;342946;28;4715;-86
2022/02/28 00:22:39;;;;;;;;;;;4.70;97.70;220.40;238766.00;;;;344468;28;4959;-86
2022/02/28 00:22:51;;;;;;;;;;;4.80;97.80;220.40;238766.00;;;;342744;28;7061;-86
2022/02/28 00:23:03;;;;;;;;;;;4.70;97.80;220.40;238766.00;;;;345475;28;5311;-86
2022/02/28 00:23:16;;;;;;;;;;;4.70;97.80;220.40;238766.00;;;;344335;28;4850;-86
2022/02/28 00:23:28;;;;;;;;;;;4.70;97.90;220.40;238766.00;;;;345759;28;5144;-86
2022/02/28 00:23:40;;;;;;;;;;;4.70;98.00;220.40;238766.00;;;;347102;28;4710;-86
2022/02/28 00:23:51;;;;;;;;;;;4.70;98.00;220.40;238766.00;;;;345144;28;4981;-86
2022/02/28 00:24:03;;;;;;;;;;;4.70;98.00;220.40;238766.00;;;;344306;28;5546;-86
2022/02/28 00:24:16;;;;;;;;;;;4.70;97.90;220.40;238766.00;;;;344460;28;5141;-86
2022/02/28 00:24:28;;;;;;;;;;;4.70;97.80;220.40;238766.00;;;;344281;28;4785;-86
2022/02/28 00:24:39;;;;;;;;;;;4.80;97.80;220.40;238766.00;;;;347216;28;6605;-86
2022/02/28 00:24:51;;;;;;;;;;;4.80;97.80;220.40;238766.00;;;;345688;28;4771;-86
2022/02/28 00:25:04;;;;;;;;;;;4.80;97.80;220.40;238766.00;;;;347128;28;6861;-85
2022/02/28 00:25:17;;;;;;;;;;;4.70;97.70;220.40;238766.00;;;;345644;28;5715;-86
2022/02/28 00:25:28;;;;;;;;;;;4.80;97.80;220.40;238766.00;;;;344894;28;4754;-86
2022/02/28 00:25:41;;;;;;;;;;;4.70;97.80;220.40;238766.00;;;;343132;28;4653;-86
2022/02/28 00:25:53;;;;;;;;;;;4.70;98.00;220.40;238766.00;;;;344383;28;6139;-86
2022/02/28 00:26:05;;;;;;;;;;;4.80;97.90;220.40;238766.00;;;;345586;28;4741;-86
2022/02/28 00:26:17;;;;;;;;;;;4.70;97.80;220.40;238766.00;;;;345664;28;4882;-86
2022/02/28 00:26:29;;;;;;;;;;;4.80;97.80;220.40;238766.00;;;;345683;28;6549;-86
2022/02/28 00:26:40;;;;;;;;;;;4.80;97.80;220.40;238766.00;;;;344486;28;4925;-86
2022/02/28 00:26:52;;;;;;;;;;;4.70;97.80;220.40;238766.00;;;;344303;28;4793;-86
2022/02/28 00:27:04;;;;;;;;;;;4.80;97.80;220.40;238766.00;;;;344164;28;5004;-86
2022/02/28 00:27:17;;;;;;;;;;;4.70;97.80;220.40;238766.00;;;;347105;28;6420;-86
2022/02/28 00:27:29;;;;;;;;;;;4.70;97.90;220.40;238766.00;;;;344264;28;5661;-86
2022/02/28 00:27:40;;;;;;;;;;;4.70;97.90;220.40;238766.00;;;;344398;28;4750;-86
2022/02/28 00:27:54;;;;;;;;;;;4.70;97.90;220.40;238766.00;;;;342855;28;4714;-86
2022/02/28 00:28:06;;;;;;;;;;;4.70;97.90;220.40;238766.00;;;;349865;28;4751;-86
2022/02/28 00:28:18;;;;;;;;;;;4.70;97.90;220.40;238766.00;;;;345703;28;4728;-86
2022/02/28 00:28:30;;;;;;;;;;;4.70;97.90;220.40;238766.00;;;;345109;28;4839;-86
2022/02/28 00:28:41;;;;;;;;;;;4.70;97.90;220.40;238766.00;;;;345344;28;4761;-86
2022/02/28 00:28:53;;;;;;;;;;;4.70;97.90;220.40;238766.00;;;;347152;28;4731;-86
2022/02/28 00:29:05;;;;;;;;;;;4.70;97.90;220.40;238766.00;;;;342929;28;7168;-87
2022/02/28 00:29:18;;;;;;;;;;;4.70;97.90;220.40;238766.00;;;;347082;27;5708;-86
2022/02/28 00:29:29;;;;;;;;;;;4.70;97.80;220.40;238766.00;;;;344228;28;8320;-86
2022/02/28 00:29:41;;;;;;;;;;;4.70;97.80;220.40;238766.00;;;;342998;28;4712;-86
2022/02/28 00:29:53;;;;;;;;;;;4.70;97.80;220.40;238766.00;;;;344426;28;4914;-86
2022/02/28 00:30:06;;;;;;;;;;;4.70;97.60;220.40;238766.00;;;;345539;28;4798;-86
2022/02/28 00:30:18;;;;;;;;;;;4.70;97.60;220.40;238766.00;;;;344386;28;4704;-86
2022/02/28 00:30:30;;;;;;;;;;;4.80;97.70;220.40;238766.00;;;;344152;28;4753;-86
2022/02/28 00:30:42;;;;;;;;;;;4.80;97.60;220.40;238766.00;;;;344335;28;4723;-86
2022/02/28 00:30:54;;;;;;;;;;;4.80;97.60;220.40;238766.00;;;;343597;28;4775;-86
2022/02/28 00:31:09;;;;;;;;;;;4.70;97.50;220.40;238766.00;;;;348590;28;5360;-85
2022/02/28 00:31:20;;;;;;;;;;;4.80;97.60;220.40;238766.00;;;;344445;28;4674;-86
2022/02/28 00:31:32;;;;;;;;;;;4.80;97.60;220.40;238766.00;;;;344177;28;6656;-86
2022/02/28 00:31:44;;;;;;;;;;;4.80;97.50;220.40;238766.00;;;;345752;28;4667;-85
2022/02/28 00:31:56;;;;;;;;;;;4.70;97.50;220.40;238766.00;;;;344728;28;5075;-86
2022/02/28 00:32:08;;;;;;;;;;;4.80;97.50;220.40;238766.00;;;;342955;28;6165;-86
2022/02/28 00:32:21;;;;;;;;;;;4.80;97.50;220.40;238766.00;;;;343102;28;4959;-86
2022/02/28 00:32:33;;;;;;;;;;;4.80;97.60;220.40;238766.00;;;;344361;28;4757;-86
2022/02/28 00:32:44;;;;;;;;;;;4.80;97.60;220.40;238766.00;;;;344177;28;5190;-86
2022/02/28 00:32:56;;;;;;;;;;;4.80;97.60;220.40;238766.00;;;;343085;28;4669;-87
2022/02/28 00:33:08;;;;;;;;;;;4.70;97.60;220.40;238766.00;;;;343014;28;5228;-86
2022/02/28 00:33:20;;;;;;;;;;;4.80;97.60;220.40;238766.00;;;;344435;28;4670;-86
2022/02/28 00:33:31;;;;;;;;;;;4.80;97.60;220.40;238766.00;;;;344147;28;5335;-86
2022/02/28 00:33:43;;;;;;;;;;;4.70;97.60;220.40;238766.00;;;;344181;28;6317;-86
2022/02/28 00:33:55;;;;;;;;;;;4.70;97.50;220.40;238766.00;;;;342831;28;6770;-86
2022/02/28 00:34:07;;;;;;;;;;;4.70;97.50;220.40;238766.00;;;;352747;28;7577;-86
2022/02/28 00:34:19;;;;;;;;;;;4.70;97.80;220.40;238766.00;;;;350117;28;4943;-86
2022/02/28 00:34:31;;;;;;;;;;;4.70;97.60;220.40;238766.00;;;;348769;28;5599;-85
2022/02/28 00:34:42;;;;;;;;;;;4.70;97.60;220.40;238766.00;;;;348630;28;5216;-86
2022/02/28 00:34:54;;;;;;;;;;;4.70;97.60;220.40;238766.00;;;;351227;28;4813;-86
2022/02/28 00:35:06;;;;;;;;;;;4.70;97.60;220.40;238766.00;;;;351320;28;4888;-86
2022/02/28 00:35:20;;;;;;;;;;;4.70;97.60;220.40;238766.00;;;;344243;28;4825;-86
2022/02/28 00:35:31;;;;;;;;;;;4.70;97.50;220.40;238766.00;;;;344358;28;5423;-86
2022/02/28 00:35:43;;;;;;;;;;;4.70;97.60;220.40;238766.00;;;;344181;28;4686;-86
2022/02/28 00:35:55;;;;;;;;;;;4.70;97.70;220.40;238766.00;;;;344209;28;4957;-85
2022/02/28 00:36:07;;;;;;;;;;;4.70;97.90;220.40;238766.00;;;;345682;28;4763;-86
2022/02/28 00:36:20;;;;;;;;;;;4.70;97.70;220.40;238766.00;;;;344368;28;5213;-86
2022/02/28 00:36:32;;;;;;;;;;;4.70;97.70;220.40;238766.00;;;;347043;28;5721;-86
2022/02/28 00:36:43;;;;;;;;;;;4.70;97.70;220.40;238766.00;;;;344267;28;7261;-86
2022/02/28 00:36:56;;;;;;;;;;;4.70;97.70;220.40;238766.00;;;;347327;28;4910;-86
2022/02/28 00:37:07;;;;;;;;;;;4.70;97.70;220.40;238766.00;;;;349801;28;7091;-86
2022/02/28 00:37:20;;;;;;;;;;;4.70;97.70;220.40;238766.00;;;;345679;28;6125;-86
2022/02/28 00:37:32;;;;;;;;;;;4.70;97.70;220.40;238766.00;;;;344146;28;4810;-86
2022/02/28 00:37:43;;;;;;;;;;;4.70;97.60;220.40;238766.00;;;;345612;28;6304;-86
2022/02/28 00:37:55;;;;;;;;;;;4.70;97.60;220.40;238766.00;;;;345691;28;5203;-86
2022/02/28 00:38:08;;;;;;;;;;;4.60;97.60;220.40;238766.00;;;;345631;28;5595;-86
2022/02/28 00:38:21;;;;;;;;;;;4.60;97.60;220.40;238766.00;;;;345791;28;5290;-86
2022/02/28 00:38:33;;;;;;;;;;;4.70;97.60;220.40;238766.00;;;;345775;28;4671;-86
2022/02/28 00:38:45;;;;;;;;;;;4.70;97.70;220.40;238766.00;;;;342952;28;4984;-86
2022/02/28 00:38:56;;;;;;;;;;;4.70;97.70;220.40;238766.00;;;;342891;28;4744;-86
2022/02/28 00:39:08;;;;;;;;;;;4.70;97.70;220.40;238766.00;;;;342973;28;4954;-86
2022/02/28 00:39:21;;;;;;;;;;;4.70;97.70;220.40;238766.00;;;;341636;28;6196;-86
2022/02/28 00:39:32;;;;;;;;;;;4.70;97.80;220.40;238766.00;;;;344380;28;5214;-86
2022/02/28 00:39:44;;;;;;;;;;;4.70;97.80;220.40;238766.00;;;;344308;28;6578;-86
2022/02/28 00:39:56;;;;;;;;;;;4.70;97.80;220.40;238766.00;;;;344268;28;5223;-86
2022/02/28 00:40:08;;;;;;;;;;;4.70;97.90;220.40;238766.00;;;;349803;28;4744;-86
2022/02/28 00:40:21;;;;;;;;;;;4.70;97.90;220.40;238766.00;;;;345788;28;5026;-86
2022/02/28 00:40:33;;;;;;;;;;;4.60;97.90;220.40;238766.00;;;;345715;28;5621;-86
2022/02/28 00:40:45;;;;;;;;;;;4.60;97.80;220.40;238766.00;;;;344303;28;5037;-86
2022/02/28 00:40:57;;;;;;;;;;;4.60;97.90;220.40;238766.00;;;;344312;28;4762;-86
2022/02/28 00:41:08;;;;;;;;;;;4.60;98.00;220.40;238766.00;;;;345544;28;7634;-86
2022/02/28 00:41:22;;;;;;;;;;;4.60;97.90;220.40;238766.00;;;;344269;28;4690;-86
2022/02/28 00:41:34;;;;;;;;;;;4.60;97.90;220.40;238766.00;;;;345751;28;4713;-86
2022/02/28 00:41:45;;;;;;;;;;;4.60;97.90;220.40;238766.00;;;;344369;28;4773;-86
2022/02/28 00:41:57;;;;;;;;;;;4.60;97.90;220.40;238766.00;;;;345857;28;5215;-86
2022/02/28 00:42:09;;;;;;;;;;;4.60;97.80;220.40;238766.00;;;;345562;28;4829;-86
2022/02/28 00:42:21;;;;;;;;;;;4.60;97.90;220.40;238766.00;;;;345659;28;7596;-86
2022/02/28 00:42:33;;;;;;;;;;;4.60;97.90;220.40;238766.00;;;;352900;28;4667;-86
2022/02/28 00:42:45;;;;;;;;;;;4.60;97.90;220.40;238766.00;;;;352881;28;5226;-86
2022/02/28 00:42:57;;;;;;;;;;;4.60;97.90;220.40;238766.00;;;;352922;27;4871;-86
2022/02/28 00:43:09;;;;;;;;;;;4.60;97.90;220.40;238766.00;;;;351604;28;6515;-86
2022/02/28 00:43:22;;;;;;;;;;;4.60;97.90;220.40;238766.00;;;;352688;28;4779;-86
2022/02/28 00:43:34;;;;;;;;;;;4.50;97.90;220.40;238766.00;;;;351467;28;5091;-86
2022/02/28 00:43:46;;;;;;;;;;;4.60;98.00;220.40;238766.00;;;;345523;28;7029;-86
2022/02/28 00:43:59;;;;;;;;;;;4.50;97.90;220.40;238766.00;;;;345488;28;4808;-86
2022/02/28 00:44:11;;;;;;;;;;;4.50;97.90;220.40;238766.00;;;;345456;28;5720;-86
2022/02/28 00:44:23;;;;;;;;;;;4.50;97.90;220.40;238766.00;;;;345807;28;4704;-86
2022/02/28 00:44:35;;;;;;;;;;;4.50;97.90;220.40;238766.00;;;;345738;28;4729;-86
2022/02/28 00:44:46;;;;;;;;;;;4.50;97.90;220.40;238766.00;;;;345697;28;5413;-86
2022/02/28 00:44:58;;;;;;;;;;;4.50;97.90;220.40;238766.00;;;;345645;28;5696;-86
2022/02/28 00:45:10;;;;;;;;;;;4.50;98.00;220.40;238766.00;;;;344057;28;5306;-86
2022/02/28 00:45:23;;;;;;;;;;;4.50;98.10;220.40;238766.00;;;;347080;28;4713;-86
2022/02/28 00:45:35;;;;;;;;;;;4.50;98.10;220.40;238766.00;;;;344418;28;4929;-86
2022/02/28 00:45:47;;;;;;;;;;;4.50;98.10;220.40;238766.00;;;;345705;28;4732;-86
2022/02/28 00:45:59;;;;;;;;;;;4.50;98.10;220.40;238766.00;;;;346094;28;4978;-86
2022/02/28 00:46:10;;;;;;;;;;;4.50;98.10;220.40;238766.00;;;;350632;27;4810;-86
2022/02/28 00:46:23;;;;;;;;;;;4.50;98.10;220.40;238766.00;;;;352850;28;4926;-86
2022/02/28 00:46:35;;;;;;;;;;;4.50;98.20;220.40;238766.00;;;;352859;28;4854;-86
2022/02/28 00:46:47;;;;;;;;;;;4.50;98.20;220.40;238766.00;;;;345689;28;4964;-86
2022/02/28 00:46:59;;;;;;;;;;;4.50;98.20;220.40;238766.00;;;;343468;28;4661;-86
2022/02/28 00:47:10;;;;;;;;;;;4.50;98.20;220.40;238766.00;;;;343018;28;8290;-86
2022/02/28 00:47:23;;;;;;;;;;;4.50;98.20;220.40;238766.00;;;;344266;28;7177;-86
2022/02/28 00:47:35;;;;;;;;;;;4.50;98.30;220.40;238766.00;;;;345507;28;7128;-86
2022/02/28 00:47:46;;;;;;;;;;;4.50;98.30;220.40;238766.00;;;;345419;28;4773;-86
2022/02/28 00:47:58;;;;;;;;;;;4.50;98.40;220.40;238766.00;;;;347107;28;5221;-86
2022/02/28 00:48:10;;;;;;;;;;;4.50;98.70;220.40;238766.00;;;;345682;28;4818;-86
2022/02/28 00:48:23;;;;;;;;;;;4.40;98.40;220.40;238766.00;;;;345789;28;4941;-86
2022/02/28 00:48:35;;;;;;;;;;;4.40;98.50;220.40;238766.00;;;;345689;28;4856;-86
2022/02/28 00:48:47;;;;;;;;;;;4.50;98.50;220.40;238766.00;;;;345662;28;5276;-86
2022/02/28 00:48:59;;;;;;;;;;;4.40;98.60;220.40;238766.00;;;;346080;28;4840;-86
2022/02/28 00:49:10;;;;;;;;;;;4.40;98.50;220.40;238766.00;;;;346921;27;7667;-86
2022/02/28 00:49:23;;;;;;;;;;;4.40;98.50;220.40;238766.00;;;;345604;28;4863;-86
2022/02/28 00:49:35;;;;;;;;;;;4.40;98.60;220.40;238766.00;;;;344320;28;5205;-86
2022/02/28 00:49:47;;;;;;;;;;;4.40;98.60;220.40;238766.00;;;;344217;28;5590;-86
2022/02/28 00:49:59;;;;;;;;;;;4.40;98.60;220.40;238766.00;;;;344296;28;5216;-86
2022/02/28 00:50:11;;;;;;;;;;;4.40;98.70;220.40;238766.00;;;;345653;28;4763;-86
2022/02/28 00:50:22;;;;;;;;;;;4.40;98.80;220.40;238766.00;;;;345495;28;5277;-86
2022/02/28 00:50:34;;;;;;;;;;;4.40;98.80;220.40;238766.00;;;;345707;28;4667;-86
2022/02/28 00:50:46;;;;;;;;;;;4.40;98.80;220.40;238766.00;;;;344303;28;5139;-86
2022/02/28 00:50:58;;;;;;;;;;;4.40;98.80;220.40;238766.00;;;;344388;28;4746;-86
2022/02/28 00:51:10;;;;;;;;;;;4.40;98.70;220.40;238766.00;;;;344392;28;5194;-86
2022/02/28 00:51:24;;;;;;;;;;;4.40;98.70;220.40;238766.00;;;;344219;28;4817;-86
2022/02/28 00:51:36;;;;;;;;;;;4.40;98.90;220.40;238766.00;;;;347021;27;6751;-86
2022/02/28 00:51:47;;;;;;;;;;;4.40;98.90;220.40;238766.00;;;;344251;28;4845;-86
2022/02/28 00:51:59;;;;;;;;;;;4.40;98.80;220.40;238766.00;;;;346769;28;5174;-86
2022/02/28 00:52:11;;;;;;;;;;;4.40;98.70;220.40;238766.00;;;;347468;28;7474;-86
2022/02/28 00:52:24;;;;;;;;;;;4.40;98.70;220.40;238766.00;;;;351051;28;7885;-86
2022/02/28 00:52:36;;;;;;;;;;;4.40;98.80;220.40;238766.00;;;;344441;28;4691;-86
2022/02/28 00:52:48;;;;;;;;;;;4.40;98.90;220.40;238766.00;;;;345551;28;6693;-86
2022/02/28 00:53:00;;;;;;;;;;;4.40;98.90;220.40;238766.00;;;;344196;28;6274;-86
2022/02/28 00:53:12;;;;;;;;;;;4.40;98.90;220.40;238766.00;;;;344444;28;5260;-86
2022/02/28 00:53:25;;;;;;;;;;;4.40;98.80;220.40;238766.00;;;;342922;28;6301;-86
2022/02/28 00:53:37;;;;;;;;;;;4.40;98.80;220.40;238766.00;;;;344424;28;5280;-86
2022/02/28 00:53:48;;;;;;;;;;;4.40;98.80;220.40;238766.00;;;;345615;28;6404;-86
2022/02/28 00:54:00;;;;;;;;;;;4.40;98.70;220.40;238766.00;;;;345446;28;4959;-86
2022/02/28 00:54:12;;;;;;;;;;;4.40;98.80;220.40;238766.00;;;;343949;28;4713;-86
2022/02/28 00:54:25;;;;;;;;;;;4.40;98.70;220.40;238766.00;;;;345777;28;4714;-86
2022/02/28 00:54:37;;;;;;;;;;;4.40;98.70;220.40;238766.00;;;;342948;28;6687;-86
2022/02/28 00:54:49;;;;;;;;;;;4.40;98.70;220.40;238766.00;;;;345714;28;5462;-86
2022/02/28 00:55:01;;;;;;;;;;;4.40;98.70;220.40;238766.00;;;;348305;28;4835;-86
2022/02/28 00:55:12;;;;;;;;;;;4.40;98.60;220.40;238766.00;;;;348345;28;5213;-86
2022/02/28 00:55:26;;;;;;;;;;;4.40;98.70;220.40;238766.00;;;;344164;28;4706;-86
2022/02/28 00:55:37;;;;;;;;;;;4.40;98.70;220.40;238766.00;;;;344444;28;4715;-86
2022/02/28 00:55:49;;;;;;;;;;;4.40;98.70;220.40;238766.00;;;;342944;28;7698;-86
2022/02/28 00:56:01;;;;;;;;;;;4.40;98.80;220.40;238766.00;;;;342991;28;4735;-86
2022/02/28 00:56:13;;;;;;;;;;;4.40;98.90;220.40;238766.00;;;;345617;28;6222;-86
2022/02/28 00:56:26;;;;;;;;;;;4.40;98.90;220.40;238766.00;;;;344350;28;4697;-86
2022/02/28 00:56:38;;;;;;;;;;;4.40;98.90;220.40;238766.00;;;;345671;28;5910;-86
2022/02/28 00:56:49;;;;;;;;;;;4.40;98.90;220.40;238766.00;;;;345557;27;4728;-85
2022/02/28 00:57:01;;;;;;;;;;;4.40;98.90;220.40;238766.00;;;;344382;28;5979;-86
2022/02/28 00:57:13;;;;;;;;;;;4.40;98.80;220.40;238766.00;;;;344343;28;6716;-86
2022/02/28 00:57:26;;;;;;;;;;;4.40;98.80;220.40;238766.00;;;;344391;28;4953;-86
2022/02/28 00:57:38;;;;;;;;;;;4.40;98.90;220.40;238766.00;;;;343124;28;6513;-86
2022/02/28 00:57:50;;;;;;;;;;;4.40;99.00;220.40;238766.00;;;;350066;28;4763;-86
2022/02/28 00:58:02;;;;;;;;;;;4.40;99.20;220.40;238766.00;;;;348000;28;7532;-86
2022/02/28 00:58:14;;;;;;;;;;;4.40;99.40;220.40;238766.00;;;;346866;28;7055;-86
2022/02/28 00:58:26;;;;;;;;;;;4.40;99.60;220.40;238766.00;;;;343531;28;5484;-86
2022/02/28 00:58:38;;;;;;;;;;;4.40;99.70;220.40;238766.00;;;;344410;28;4751;-86
2022/02/28 00:58:50;;;;;;;;;;;4.40;99.60;220.40;238766.00;;;;344358;28;4727;-86
2022/02/28 00:59:02;;;;;;;;;;;4.40;99.90;220.40;238766.00;;;;345512;28;4839;-86
2022/02/28 00:59:14;;;;;;;;;;;4.40;99.90;220.40;238766.00;;;;345744;28;5045;-86
2022/02/28 00:59:26;;;;;;;;;;;4.40;99.90;220.40;238766.00;;;;345644;28;4717;-86
2022/02/28 00:59:38;;;;;;;;;;;4.40;99.90;220.40;238766.00;;;;345714;28;4915;-85
2022/02/28 00:59:50;;;;;;;;;;;4.40;99.80;220.40;238766.00;;;;345484;28;4744;-86